Time;durP1;ratioP1;P1;durP2;ratioP2;P2;SDS_P1;SDS_P2;PMS_P1;PMS_P2;Temp;Humidity;BMP_temperature;BMP_pressure;BME280_temperature;BME280_humidity;BME280_pressure;Samples;Min_cycle;Max_cycle;Signal;HPM_P1;HPM_P2
2023/06/05 00:01:56;;;;;;;13.60;5.63;;;;;;;;;;5047158;28;20060;-83
2023/06/05 00:04:23;;;;;;;9.82;5.72;;;;;;;;;;5042110;28;20041;-80
2023/06/05 00:06:50;;;;;;;10.80;5.35;;;;;;;;;;5045997;28;20149;-80
2023/06/05 00:09:16;;;;;;;9.60;5.35;;;;;;;;;;5051650;28;20055;-80
2023/06/05 00:11:42;;;;;;;;;;;;;;;;;;5052784;28;20067;-80
2023/06/05 00:14:08;;;;;;;10.50;5.65;;;;;;;;;;5042116;28;19925;-81
2023/06/05 00:16:34;;;;;;;;;;;;;;;;;;5047907;28;20132;-80
2023/06/05 00:19:01;;;;;;;13.55;5.82;;;;;;;;;;5047021;28;19964;-81
2023/06/05 00:21:28;;;;;;;;;;;;;;;;;;5032622;28;20063;-80
2023/06/05 00:23:54;;;;;;;10.10;5.45;;;;;;;;;;5040005;28;19921;-80
2023/06/05 00:26:20;;;;;;;11.27;5.68;;;;;;;;;;5051817;28;20056;-80
2023/06/05 00:28:46;;;;;;;13.98;5.82;;;;;;;;;;5051384;28;20052;-81
2023/06/05 00:31:17;;;;;;;11.27;5.60;;;;;;;;;;5051541;28;20073;-81
2023/06/05 00:33:43;;;;;;;12.73;6.20;;;;;;;;;;5035282;28;20053;-80
2023/06/05 00:36:09;;;;;;;12.05;5.90;;;;;;;;;;5051337;28;20045;-80
2023/06/05 00:38:35;;;;;;;11.52;6.10;;;;;;;;;;5051381;28;20041;-81
2023/06/05 00:41:02;;;;;;;11.80;5.93;;;;;;;;;;5052402;28;20077;-80
2023/06/05 00:43:28;;;;;;;13.55;6.45;;;;;;;;;;5051400;28;20049;-80
2023/06/05 00:45:58;;;;;;;12.05;6.40;;;;;;;;;;5051057;28;20106;-80
2023/06/05 00:48:25;;;;;;;12.52;6.60;;;;;;;;;;5050837;28;20128;-80
2023/06/05 00:50:51;;;;;;;12.82;6.30;;;;;;;;;;5051071;28;20056;-80
2023/06/05 00:53:17;;;;;;;;;;;;;;;;;;5078399;28;20052;-80
2023/06/05 00:55:43;;;;;;;11.52;6.57;;;;;;;;;;5073425;28;19920;-80
2023/06/05 00:58:09;;;;;;;;;;;;;;;;;;5035330;28;20045;-81
2023/06/05 01:00:36;;;;;;;12.63;6.55;;;;;;;;;;5034632;28;20358;-82
2023/06/05 01:03:02;;;;;;;12.13;6.45;;;;;;;;;;5051222;28;20080;-80
2023/06/05 01:05:28;;;;;;;14.27;6.78;;;;;;;;;;5050385;28;20065;-81
2023/06/05 01:07:54;;;;;;;;;;;;;;;;;;5051161;28;20045;-80
2023/06/05 01:10:20;;;;;;;11.05;6.25;;;;;;;;;;5050911;28;19986;-80
2023/06/05 01:13:05;;;;;;;13.65;6.45;;;;;;;;;;5046973;28;20049;-81
2023/06/05 01:15:33;;;;;;;11.05;6.38;;;;;;;;;;5030009;28;20052;-81
2023/06/05 01:18:00;;;;;;;14.35;6.88;;;;;;;;;;5031638;28;20197;-81
2023/06/05 01:20:35;;;;;;;13.75;6.60;;;;;;;;;;5035187;28;20053;-81
2023/06/05 01:23:05;;;;;;;13.70;6.70;;;;;;;;;;5038415;28;20037;-82
2023/06/05 01:25:32;;;;;;;14.85;6.55;;;;;;;;;;5054779;28;20532;-80
2023/06/05 01:28:25;;;;;;;14.65;6.65;;;;;;;;;;5037921;28;20051;-81
2023/06/05 01:31:20;;;;;;;13.77;6.95;;;;;;;;;;5053147;28;20114;-81
2023/06/05 01:33:50;;;;;;;18.40;7.00;;;;;;;;;;5035893;28;20054;-80
2023/06/05 01:36:17;;;;;;;15.02;7.05;;;;;;;;;;5034592;28;20103;-80
2023/06/05 01:38:44;;;;;;;19.13;8.00;;;;;;;;;;5035386;28;20131;-81
2023/06/05 01:41:11;;;;;;;13.55;7.55;;;;;;;;;;5051603;28;20049;-84
2023/06/05 01:43:38;;;;;;;17.30;7.20;;;;;;;;;;5054363;28;20053;-86
2023/06/05 01:46:07;;;;;;;13.82;7.45;;;;;;;;;;5043171;28;20406;-81
2023/06/05 01:48:33;;;;;;;13.60;7.07;;;;;;;;;;5033965;28;20403;-80
2023/06/05 01:51:03;;;;;;;13.00;7.47;;;;;;;;;;5033644;28;20045;-81
2023/06/05 01:53:29;;;;;;;19.65;7.38;;;;;;;;;;5017865;28;20060;-80
2023/06/05 01:55:57;;;;;;;14.27;7.60;;;;;;;;;;5034249;28;20136;-81
2023/06/05 01:58:26;;;;;;;15.38;7.72;;;;;;;;;;5037528;28;20090;-81
2023/06/05 02:00:53;;;;;;;13.50;7.22;;;;;;;;;;5053096;28;20045;-81
2023/06/05 02:03:19;;;;;;;13.68;7.45;;;;;;;;;;5052780;28;20049;-81
2023/06/05 02:05:46;;;;;;;13.38;7.47;;;;;;;;;;5038292;28;20407;-80
2023/06/05 02:08:13;;;;;;;;;;;;;;;;;;5034672;28;20082;-80
2023/06/05 02:10:44;;;;;;;13.77;6.38;;;;;;;;;;5034270;28;20395;-85
2023/06/05 02:13:10;;;;;;;14.02;7.65;;;;;;;;;;5034226;28;20049;-80
2023/06/05 02:15:37;;;;;;;12.75;6.82;;;;;;;;;;5034135;28;20060;-82
2023/06/05 02:18:04;;;;;;;13.70;7.30;;;;;;;;;;5034197;28;20127;-80
2023/06/05 02:20:30;;;;;;;13.07;7.10;;;;;;;;;;5021612;28;20050;-80
2023/06/05 02:22:56;;;;;;;20.83;8.10;;;;;;;;;;5053534;28;20409;-80
2023/06/05 02:25:26;;;;;;;15.35;7.80;;;;;;;;;;5033664;28;20574;-81
2023/06/05 02:27:53;;;;;;;15.20;7.35;;;;;;;;;;5033376;28;20057;-81
2023/06/05 02:30:18;;;;;;;;;;;;;;;;;;5034482;28;20055;-81
2023/06/05 02:32:45;;;;;;;16.30;8.10;;;;;;;;;;5033229;28;19929;-80
2023/06/05 02:35:11;;;;;;;18.92;7.40;;;;;;;;;;5033627;28;20057;-81
2023/06/05 02:37:43;;;;;;;15.07;7.70;;;;;;;;;;5033595;28;20396;-80
2023/06/05 02:40:09;;;;;;;14.88;7.22;;;;;;;;;;5033579;28;20060;-81
2023/06/05 02:42:35;;;;;;;16.52;7.82;;;;;;;;;;5049688;28;20494;-81
2023/06/05 02:45:02;;;;;;;16.05;7.88;;;;;;;;;;5032793;28;20491;-81
2023/06/05 02:47:27;;;;;;;;;;;;;;;;;;5033244;28;20050;-81
2023/06/05 02:49:53;;;;;;;13.55;7.80;;;;;;;;;;5043987;28;19921;-82
2023/06/05 02:52:20;;;;;;;12.60;7.55;;;;;;;;;;5027049;28;20398;-81
2023/06/05 02:54:46;;;;;;;16.50;7.95;;;;;;;;;;5038856;28;20053;-81
2023/06/05 02:57:13;;;;;;;16.15;7.57;;;;;;;;;;5053228;28;20041;-81
2023/06/05 02:59:40;;;;;;;14.65;7.70;;;;;;;;;;5036551;28;20056;-80
2023/06/05 03:02:06;;;;;;;18.35;7.88;;;;;;;;;;5052890;28;20445;-81
2023/06/05 03:04:32;;;;;;;17.63;8.20;;;;;;;;;;5051839;28;20518;-80
2023/06/05 03:06:59;;;;;;;;;;;;;;;;;;5054189;28;20061;-80
2023/06/05 03:09:25;;;;;;;17.87;8.43;;;;;;;;;;5047724;28;20378;-80
2023/06/05 03:11:52;;;;;;;14.48;7.78;;;;;;;;;;5032773;28;20132;-80
2023/06/05 03:14:18;;;;;;;15.20;7.05;;;;;;;;;;5016402;28;20045;-80
2023/06/05 03:16:45;;;;;;;16.10;7.13;;;;;;;;;;5038647;28;20037;-84
2023/06/05 03:19:11;;;;;;;13.88;7.38;;;;;;;;;;5052063;28;20049;-80
2023/06/05 03:21:38;;;;;;;;;;;;;;;;;;5052949;28;20409;-80
2023/06/05 03:24:14;;;;;;;12.70;6.65;;;;;;;;;;5035270;28;20282;-80
2023/06/05 03:26:44;;;;;;;17.50;7.55;;;;;;;;;;5035594;28;20049;-80
2023/06/05 03:29:10;;;;;;;14.18;7.88;;;;;;;;;;5044488;28;20052;-80
2023/06/05 03:31:37;;;;;;;17.23;7.45;;;;;;;;;;5051436;28;20550;-80
2023/06/05 03:34:03;;;;;;;;;;;;;;;;;;5052111;28;20087;-80
2023/06/05 03:36:30;;;;;;;17.08;7.70;;;;;;;;;;5052445;28;19920;-80
2023/06/05 03:38:57;;;;;;;14.05;7.15;;;;;;;;;;5051994;28;20048;-80
2023/06/05 03:41:23;;;;;;;16.98;6.70;;;;;;;;;;5051528;28;20483;-81
2023/06/05 03:43:49;;;;;;;14.23;7.32;;;;;;;;;;5035468;28;20045;-87
2023/06/05 03:46:18;;;;;;;17.48;7.63;;;;;;;;;;5052211;28;20640;-80
2023/06/05 03:48:58;;;;;;;13.82;6.65;;;;;;;;;;5051785;28;20053;-80
2023/06/05 03:51:29;;;;;;;14.48;7.03;;;;;;;;;;5051782;28;20384;-80
2023/06/05 03:53:57;;;;;;;12.65;6.82;;;;;;;;;;5051510;28;20045;-80
2023/06/05 03:56:28;;;;;;;16.38;6.75;;;;;;;;;;5019162;28;20048;-80
2023/06/05 03:58:54;;;;;;;13.20;7.10;;;;;;;;;;5035208;28;20520;-81
2023/06/05 04:01:20;;;;;;;11.32;6.90;;;;;;;;;;5052068;28;20394;-80
2023/06/05 04:03:46;;;;;;;12.52;6.88;;;;;;;;;;5051216;28;20052;-80
2023/06/05 04:06:12;;;;;;;16.67;7.32;;;;;;;;;;5050938;28;20092;-81
2023/06/05 04:08:38;;;;;;;14.57;6.88;;;;;;;;;;5035401;28;20490;-82
2023/06/05 04:11:05;;;;;;;17.08;6.40;;;;;;;;;;5051737;28;20052;-80
2023/06/05 04:13:31;;;;;;;12.85;7.15;;;;;;;;;;5051720;28;20045;-80
2023/06/05 04:15:57;;;;;;;15.32;6.80;;;;;;;;;;5046533;28;20056;-80
2023/06/05 04:18:23;;;;;;;15.98;7.70;;;;;;;;;;5047986;28;20395;-80
2023/06/05 04:20:49;;;;;;;15.05;7.28;;;;;;;;;;5031762;28;20137;-85
2023/06/05 04:23:15;;;;;;;;;;;;;;;;;;5032158;28;20057;-80
2023/06/05 04:25:45;;;;;;;16.75;7.00;;;;;;;;;;5031568;28;20517;-80
2023/06/05 04:28:11;;;;;;;18.70;6.68;;;;;;;;;;5064421;28;20049;-81
2023/06/05 04:30:38;;;;;;;12.15;6.93;;;;;;;;;;5064369;28;20045;-81
2023/06/05 04:33:06;;;;;;;15.05;6.45;;;;;;;;;;5062968;28;20443;-82
2023/06/05 04:35:33;;;;;;;12.35;6.45;;;;;;;;;;5030006;28;20072;-80
2023/06/05 04:38:00;;;;;;;12.80;6.68;;;;;;;;;;5047517;28;20128;-81
2023/06/05 04:40:26;;;;;;;12.43;6.40;;;;;;;;;;5031666;28;20172;-80
2023/06/05 04:42:54;;;;;;;12.02;6.88;;;;;;;;;;5031321;28;20053;-87
2023/06/05 04:45:21;;;;;;;12.23;6.43;;;;;;;;;;5014976;28;20096;-81
2023/06/05 04:47:47;;;;;;;14.93;6.63;;;;;;;;;;5031106;28;20495;-80
2023/06/05 04:50:13;;;;;;;;;;;;;;;;;;5032860;28;20179;-81
2023/06/05 04:52:39;;;;;;;15.38;6.30;;;;;;;;;;5032207;28;19928;-81
2023/06/05 04:55:06;;;;;;;;;;;;;;;;;;5035831;28;20084;-80
2023/06/05 04:57:32;;;;;;;14.30;6.68;;;;;;;;;;5035667;28;19983;-81
2023/06/05 04:59:58;;;;;;;11.43;6.10;;;;;;;;;;5035408;28;20084;-81
2023/06/05 05:02:24;;;;;;;13.18;6.50;;;;;;;;;;5038337;28;20479;-83
2023/06/05 05:04:51;;;;;;;13.82;6.53;;;;;;;;;;5054717;28;20137;-81
2023/06/05 05:07:17;;;;;;;11.02;6.13;;;;;;;;;;5054902;28;20107;-80
2023/06/05 05:09:44;;;;;;;14.30;6.65;;;;;;;;;;5055352;28;20088;-80
2023/06/05 05:12:11;;;;;;;11.70;6.20;;;;;;;;;;5055081;28;20132;-80
2023/06/05 05:14:37;;;;;;;14.57;6.85;;;;;;;;;;5055099;28;20052;-80
2023/06/05 05:17:03;;;;;;;12.35;6.63;;;;;;;;;;5038405;28;20367;-81
2023/06/05 05:19:30;;;;;;;11.32;6.43;;;;;;;;;;5053551;28;20052;-81
2023/06/05 05:21:56;;;;;;;10.95;6.05;;;;;;;;;;5050293;28;20495;-88
2023/06/05 05:24:23;;;;;;;13.00;7.07;;;;;;;;;;5033750;28;20183;-82
2023/06/05 05:26:49;;;;;;;12.73;6.43;;;;;;;;;;5034864;28;20045;-80
2023/06/05 05:29:16;;;;;;;14.68;6.72;;;;;;;;;;5034610;28;20053;-82
2023/06/05 05:31:42;;;;;;;13.13;6.03;;;;;;;;;;5034991;28;20053;-81
2023/06/05 05:34:08;;;;;;;18.58;6.40;;;;;;;;;;5033950;28;20045;-81
2023/06/05 05:36:34;;;;;;;14.43;6.55;;;;;;;;;;5034578;28;20556;-82
2023/06/05 05:39:00;;;;;;;12.13;6.25;;;;;;;;;;5035446;28;20143;-81
2023/06/05 05:41:26;;;;;;;13.25;6.28;;;;;;;;;;5035950;28;20491;-81
2023/06/05 05:43:52;;;;;;;;;;;;;;;;;;5035205;28;20081;-81
2023/06/05 05:46:18;;;;;;;13.02;6.32;;;;;;;;;;5034344;28;19967;-82
2023/06/05 05:48:44;;;;;;;11.18;6.30;;;;;;;;;;5019404;28;20058;-81
2023/06/05 05:51:10;;;;;;;;;;;;;;;;;;5054162;28;20045;-81
2023/06/05 05:53:36;;;;;;;16.23;5.68;;;;;;;;;;5037796;28;19927;-82
2023/06/05 05:56:03;;;;;;;9.88;5.45;;;;;;;;;;5054121;28;20052;-81
2023/06/05 05:58:30;;;;;;;9.60;5.68;;;;;;;;;;5053451;28;20159;-77
2023/06/05 06:00:56;;;;;;;8.52;5.10;;;;;;;;;;5051450;28;20053;-75
2023/06/05 06:03:23;;;;;;;10.18;5.15;;;;;;;;;;5051856;28;20052;-77
2023/06/05 06:05:49;;;;;;;10.93;5.40;;;;;;;;;;5031785;28;20065;-77
2023/06/05 06:08:15;;;;;;;;;;;;;;;;;;5047870;28;20544;-77
2023/06/05 06:10:41;;;;;;;9.40;4.90;;;;;;;;;;5040492;28;19921;-82
2023/06/05 06:13:07;;;;;;;;;;;;;;;;;;5035720;28;20390;-77
2023/06/05 06:15:33;;;;;;;11.43;5.32;;;;;;;;;;5051851;28;19920;-77
2023/06/05 06:18:02;;;;;;;9.05;4.93;;;;;;;;;;5052105;28;20106;-82
2023/06/05 06:20:28;;;;;;;8.35;4.55;;;;;;;;;;5052067;28;20142;-78
2023/06/05 06:22:54;;;;;;;10.32;5.78;;;;;;;;;;5052829;28;20091;-79
2023/06/05 06:25:20;;;;;;;;;;;;;;;;;;5079089;28;20102;-77
2023/06/05 06:27:48;;;;;;;10.75;6.22;;;;;;;;;;5042100;28;19921;-77
2023/06/05 06:30:14;;;;;;;8.65;5.35;;;;;;;;;;5050976;28;20071;-77
2023/06/05 06:32:40;;;;;;;11.20;5.70;;;;;;;;;;5031644;28;20517;-79
2023/06/05 06:35:07;;;;;;;11.13;5.03;;;;;;;;;;5046169;28;20049;-79
2023/06/05 06:37:33;;;;;;;11.70;6.10;;;;;;;;;;5044642;28;20115;-77
2023/06/05 06:39:59;;;;;;;;;;;;;;;;;;5031942;28;20044;-78
2023/06/05 06:42:27;;;;;;;7.93;4.47;;;;;;;;;;5031000;28;19964;-78
2023/06/05 06:44:55;;;;;;;12.10;5.43;;;;;;;;;;5014898;28;20399;-77
2023/06/05 06:47:22;;;;;;;9.65;5.50;;;;;;;;;;5030614;28;20060;-80
2023/06/05 06:49:49;;;;;;;9.40;5.15;;;;;;;;;;5032025;28;20053;-77
2023/06/05 06:52:15;;;;;;;;;;;;;;;;;;5084626;28;20049;-78
2023/06/05 06:54:41;;;;;;;8.23;4.38;;;;;;;;;;5051306;28;19921;-77
2023/06/05 06:57:08;;;;;;;8.57;5.32;;;;;;;;;;5038203;28;20107;-78
2023/06/05 06:59:34;;;;;;;9.85;5.43;;;;;;;;;;5034597;28;20094;-77
2023/06/05 07:02:13;;;;;;;9.07;4.93;;;;;;;;;;5040405;28;20437;-77
2023/06/05 07:04:40;;;;;;;9.55;5.05;;;;;;;;;;5049563;28;20111;-76
2023/06/05 07:07:08;;;;;;;10.18;5.35;;;;;;;;;;5051794;28;20100;-79
2023/06/05 07:09:34;;;;;;;8.20;4.72;;;;;;;;;;5047976;28;20052;-76
2023/06/05 07:12:04;;;;;;;10.57;4.88;;;;;;;;;;5084052;28;20044;-77
2023/06/05 07:14:31;;;;;;;7.78;4.32;;;;;;;;;;5051419;28;20041;-82
2023/06/05 07:16:59;;;;;;;7.90;4.72;;;;;;;;;;5030504;28;20098;-84
2023/06/05 07:19:25;;;;;;;6.75;3.97;;;;;;;;;;5028092;28;20184;-83
2023/06/05 07:21:51;;;;;;;;;;;;;;;;;;5052562;28;20041;-83
2023/06/05 07:24:20;;;;;;;9.85;4.40;;;;;;;;;;5026800;28;19921;-82
2023/06/05 07:26:46;;;;;;;8.95;4.70;;;;;;;;;;5019084;28;20041;-83
2023/06/05 07:29:12;;;;;;;14.05;4.80;;;;;;;;;;5018865;28;20048;-83
2023/06/05 07:31:39;;;;;;;8.57;4.47;;;;;;;;;;5006116;28;20080;-83
2023/06/05 07:34:05;;;;;;;;;;;;;;;;;;5051608;28;20090;-83
2023/06/05 07:36:31;;;;;;;6.73;4.17;;;;;;;;;;5048141;28;20294;-83
2023/06/05 07:38:57;;;;;;;8.82;4.28;;;;;;;;;;5018221;28;20046;-83
2023/06/05 07:41:23;;;;;;;;;;;;;;;;;;5012939;28;20051;-82
2023/06/05 07:43:49;;;;;;;8.77;4.03;;;;;;;;;;5031943;28;20358;-83
2023/06/05 07:46:16;;;;;;;8.82;5.10;;;;;;;;;;5026136;28;20041;-85
2023/06/05 07:48:42;;;;;;;8.20;4.18;;;;;;;;;;5052476;28;20053;-75
2023/06/05 07:51:08;;;;;;;6.57;3.80;;;;;;;;;;5037147;28;20253;-81
2023/06/05 07:53:35;;;;;;;;;;;;;;;;;;5033865;28;20040;-79
2023/06/05 07:56:01;;;;;;;9.32;4.43;;;;;;;;;;5050357;28;19921;-78
2023/06/05 07:58:29;;;;;;;;;;;;;;;;;;5049634;28;20140;-78
2023/06/05 08:00:56;;;;;;;6.78;4.10;;;;;;;;;;5044473;28;19921;-77
2023/06/05 08:03:23;;;;;;;7.55;4.25;;;;;;;;;;5027822;28;20499;-79
2023/06/05 08:05:52;;;;;;;7.57;4.00;;;;;;;;;;5041327;28;20118;-77
2023/06/05 08:08:18;;;;;;;6.50;4.05;;;;;;;;;;5039258;28;20107;-76
2023/06/05 08:10:45;;;;;;;;;;;;;;;;;;5051762;28;20092;-76
2023/06/05 08:13:11;;;;;;;8.37;4.60;;;;;;;;;;5050800;28;19921;-80
2023/06/05 08:15:37;;;;;;;8.00;3.97;;;;;;;;;;5050608;28;20099;-76
2023/06/05 08:18:03;;;;;;;9.35;4.50;;;;;;;;;;5082019;28;20056;-76
2023/06/05 08:20:29;;;;;;;;;;;;;;;;;;5048222;28;20149;-78
2023/06/05 08:22:59;;;;;;;7.30;3.70;;;;;;;;;;5045913;28;20015;-76
2023/06/05 08:25:26;;;;;;;8.45;4.70;;;;;;;;;;5050421;28;20072;-76
2023/06/05 08:27:52;;;;;;;8.82;3.83;;;;;;;;;;5036987;28;20452;-76
2023/06/05 08:30:18;;;;;;;;;;;;;;;;;;5049060;28;20112;-75
2023/06/05 08:32:45;;;;;;;8.48;4.60;;;;;;;;;;5028864;28;19928;-76
2023/06/05 08:35:12;;;;;;;8.40;4.30;;;;;;;;;;5023833;28;20051;-83
2023/06/05 08:37:38;;;;;;;9.88;4.80;;;;;;;;;;5043829;28;20081;-83
2023/06/05 08:40:10;;;;;;;8.73;4.82;;;;;;;;;;5025460;28;20084;-85
2023/06/05 08:42:37;;;;;;;8.40;4.88;;;;;;;;;;5042278;28;20141;-84
2023/06/05 08:45:04;;;;;;;7.22;4.18;;;;;;;;;;5030587;28;20163;-82
2023/06/05 08:47:31;;;;;;;7.57;3.95;;;;;;;;;;5050213;28;20045;-89
2023/06/05 08:49:57;;;;;;;;;;;;;;;;;;5034263;28;20131;-82
2023/06/05 08:52:24;;;;;;;11.35;4.43;;;;;;;;;;5051216;28;19962;-82
2023/06/05 08:54:50;;;;;;;7.50;3.72;;;;;;;;;;5050773;28;20500;-82
2023/06/05 08:57:16;;;;;;;8.98;4.32;;;;;;;;;;5034221;28;20136;-86
2023/06/05 08:59:42;;;;;;;;;;;;;;;;;;5051485;28;20045;-85
2023/06/05 09:02:09;;;;;;;12.50;5.63;;;;;;;;;;5048870;28;20370;-79
2023/06/05 09:04:36;;;;;;;6.50;3.67;;;;;;;;;;5030954;28;20045;-85
2023/06/05 09:07:03;;;;;;;;;;;;;;;;;;5030910;28;20127;-79
2023/06/05 09:09:29;;;;;;;10.65;4.25;;;;;;;;;;5028780;28;19928;-71
2023/06/05 09:11:55;;;;;;;;;;;;;;;;;;5040618;28;20128;-73
2023/06/05 09:14:26;;;;;;;10.57;4.43;;;;;;;;;;5049819;28;20058;-86
2023/06/05 09:16:52;;;;;;;10.43;4.90;;;;;;;;;;5050785;28;20056;-86
2023/06/05 09:19:24;;;;;;;;;;;;;;;;;;5050294;28;20052;-86
2023/06/05 09:21:55;;;;;;;10.30;4.20;;;;;;;;;;5032152;28;19920;-86
2023/06/05 09:24:25;;;;;;;7.88;4.88;;;;;;;;;;5029983;28;20096;-86
2023/06/05 09:26:59;;;;;;;9.20;4.88;;;;;;;;;;5030193;28;20123;-87
2023/06/05 09:29:38;;;;;;;6.70;3.75;;;;;;;;;;5029961;28;20045;-85
2023/06/05 09:32:07;;;;;;;7.45;3.80;;;;;;;;;;5017451;28;20064;-85
2023/06/05 09:34:37;;;;;;;8.13;4.22;;;;;;;;;;5025947;28;20041;-85
2023/06/05 09:37:04;;;;;;;12.77;4.40;;;;;;;;;;5034541;28;20052;-84
2023/06/05 09:39:31;;;;;;;8.55;4.15;;;;;;;;;;5050067;28;20045;-81
2023/06/05 09:41:58;;;;;;;6.35;3.95;;;;;;;;;;5035751;28;20040;-76
2023/06/05 09:44:24;;;;;;;6.38;3.00;;;;;;;;;;5048628;28;20139;-77
2023/06/05 09:46:54;;;;;;;7.32;3.65;;;;;;;;;;5052913;28;20052;-84
2023/06/05 09:49:21;;;;;;;9.98;4.60;;;;;;;;;;5046616;28;20059;-85
2023/06/05 09:51:47;;;;;;;6.85;3.90;;;;;;;;;;5053044;28;20099;-84
2023/06/05 09:54:14;;;;;;;9.23;4.78;;;;;;;;;;5053823;28;20052;-85
2023/06/05 09:56:41;;;;;;;9.55;4.22;;;;;;;;;;5023463;28;20053;-85
2023/06/05 09:59:09;;;;;;;7.93;4.55;;;;;;;;;;5036913;28;20048;-87
2023/06/05 10:01:36;;;;;;;8.38;3.75;;;;;;;;;;5053344;28;20040;-83
2023/06/05 10:04:10;;;;;;;6.70;3.75;;;;;;;;;;5036766;28;20045;-85
2023/06/05 10:06:36;;;;;;;7.82;3.30;;;;;;;;;;5036373;28;20136;-83
2023/06/05 10:09:03;;;;;;;6.10;3.00;;;;;;;;;;5036898;28;20060;-83
2023/06/05 10:11:29;;;;;;;8.65;4.32;;;;;;;;;;5050752;28;20045;-76
2023/06/05 10:14:00;;;;;;;8.95;4.10;;;;;;;;;;5051633;28;20045;-81
2023/06/05 10:16:30;;;;;;;6.15;3.30;;;;;;;;;;5051101;28;20045;-77
2023/06/05 10:18:57;;;;;;;6.60;3.15;;;;;;;;;;5035140;28;20049;-83
2023/06/05 10:21:23;;;;;;;6.15;3.22;;;;;;;;;;5051688;28;20182;-82
2023/06/05 10:23:51;;;;;;;9.02;3.80;;;;;;;;;;5051929;28;20048;-78
2023/06/05 10:26:27;;;;;;;4.78;2.47;;;;;;;;;;5051690;28;20048;-80
2023/06/05 10:29:01;;;;;;;12.00;4.35;;;;;;;;;;5034579;28;20067;-80
2023/06/05 10:31:35;;;;;;;6.38;3.63;;;;;;;;;;5033886;28;20064;-80
2023/06/05 10:34:21;;;;;;;4.57;3.10;;;;;;;;;;5039824;28;20132;-80
2023/06/05 10:36:54;;;;;;;5.15;2.80;;;;;;;;;;5032833;28;20045;-80
2023/06/05 10:39:21;;;;;;;9.23;4.60;;;;;;;;;;5037557;28;20435;-80
2023/06/05 10:41:50;;;;;;;5.43;2.92;;;;;;;;;;5014778;28;20092;-80
2023/06/05 10:44:16;;;;;;;7.40;3.67;;;;;;;;;;5031012;28;20057;-80
2023/06/05 10:46:42;;;;;;;;;;;;;;;;;;5015153;28;20533;-81
2023/06/05 10:49:17;;;;;;;3.70;2.67;;;;;;;;;;5013589;28;19929;-80
2023/06/05 10:51:47;;;;;;;7.60;3.13;;;;;;;;;;5030385;28;20121;-80
2023/06/05 10:54:17;;;;;;;4.20;2.65;;;;;;;;;;5014984;28;20136;-80
2023/06/05 10:56:53;;;;;;;6.32;3.30;;;;;;;;;;5037150;28;20640;-80
2023/06/05 10:59:22;;;;;;;3.90;2.30;;;;;;;;;;5050904;28;20063;-80
2023/06/05 11:02:16;;;;;;;4.55;2.45;;;;;;;;;;5031378;28;20084;-80
2023/06/05 11:04:46;;;;;;;5.78;3.20;;;;;;;;;;5012498;28;20421;-80
2023/06/05 11:07:22;;;;;;;5.72;2.90;;;;;;;;;;5047550;28;20132;-80
2023/06/05 11:10:04;;;;;;;5.82;2.70;;;;;;;;;;5050292;28;20068;-81
2023/06/05 11:12:40;;;;;;;6.65;3.45;;;;;;;;;;5050257;28;20045;-80
2023/06/05 11:15:07;;;;;;;5.80;2.85;;;;;;;;;;5050300;28;20402;-81
2023/06/05 11:17:34;;;;;;;5.05;2.47;;;;;;;;;;4998916;28;20045;-80
2023/06/05 11:20:05;;;;;;;5.65;2.70;;;;;;;;;;5045904;28;20518;-81
2023/06/05 11:22:31;;;;;;;7.15;3.20;;;;;;;;;;5031649;28;20072;-80
2023/06/05 11:25:24;;;;;;;6.63;2.90;;;;;;;;;;5030464;28;20755;-80
2023/06/05 11:27:53;;;;;;;3.30;2.10;;;;;;;;;;5030483;28;20057;-80
2023/06/05 11:30:20;;;;;;;5.15;3.10;;;;;;;;;;5047140;28;20049;-80
2023/06/05 11:32:47;;;;;;;5.93;2.80;;;;;;;;;;5034743;28;20049;-81
2023/06/05 11:35:13;;;;;;;5.47;2.90;;;;;;;;;;5049574;28;20052;-80
2023/06/05 11:37:39;;;;;;;6.68;2.72;;;;;;;;;;5018234;28;20064;-80
2023/06/05 11:40:09;;;;;;;5.90;2.55;;;;;;;;;;5024386;28;20178;-81
2023/06/05 11:42:36;;;;;;;4.43;2.47;;;;;;;;;;5023375;28;20053;-81
2023/06/05 11:45:03;;;;;;;5.03;2.97;;;;;;;;;;5013864;28;20041;-83
2023/06/05 11:47:29;;;;;;;5.82;2.75;;;;;;;;;;5048737;28;20524;-82
2023/06/05 11:50:12;;;;;;;5.10;2.30;;;;;;;;;;5049222;28;20045;-82
2023/06/05 11:52:39;;;;;;;5.90;2.72;;;;;;;;;;5029630;28;20142;-82
2023/06/05 11:55:32;;;;;;;3.35;1.85;;;;;;;;;;5030083;28;20146;-81
2023/06/05 11:57:58;;;;;;;6.95;2.38;;;;;;;;;;5030204;28;20137;-81
2023/06/05 12:00:26;;;;;;;3.50;2.13;;;;;;;;;;5013606;28;20194;-82
2023/06/05 12:02:53;;;;;;;7.07;2.60;;;;;;;;;;5028334;28;20042;-81
2023/06/05 12:05:19;;;;;;;5.55;2.35;;;;;;;;;;5028990;28;20140;-82
2023/06/05 12:07:45;;;;;;;4.28;2.00;;;;;;;;;;5025226;28;20061;-82
2023/06/05 12:10:11;;;;;;;4.32;2.20;;;;;;;;;;5049599;28;20048;-82
2023/06/05 12:12:50;;;;;;;4.18;1.90;;;;;;;;;;5032694;28;20491;-82
2023/06/05 12:15:17;;;;;;;5.35;2.30;;;;;;;;;;5049754;28;20174;-82
2023/06/05 12:17:53;;;;;;;3.78;1.88;;;;;;;;;;5048392;28;20559;-82
2023/06/05 12:20:20;;;;;;;5.13;2.25;;;;;;;;;;5048794;28;20053;-82
2023/06/05 12:22:46;;;;;;;9.75;2.28;;;;;;;;;;5033050;28;20486;-82
2023/06/05 12:25:16;;;;;;;5.55;1.92;;;;;;;;;;5013178;28;20037;-82
2023/06/05 12:27:43;;;;;;;4.22;2.22;;;;;;;;;;5029151;28;20529;-82
2023/06/05 12:30:10;;;;;;;5.10;1.70;;;;;;;;;;5046080;28;20053;-81
2023/06/05 12:32:38;;;;;;;2.45;1.92;;;;;;;;;;5028502;28;20084;-82
2023/06/05 12:35:05;;;;;;;4.68;2.10;;;;;;;;;;5047032;28;20045;-91
2023/06/05 12:37:38;;;;;;;8.68;2.22;;;;;;;;;;5082212;28;20120;-85
2023/06/05 12:40:09;;;;;;;2.20;1.80;;;;;;;;;;5048815;28;20649;-86
2023/06/05 12:42:36;;;;;;;3.85;2.55;;;;;;;;;;5083773;28;20398;-88
2023/06/05 12:45:02;;;;;;;3.00;1.67;;;;;;;;;;5033652;28;20063;-88
2023/06/05 12:47:28;;;;;;;6.40;1.80;;;;;;;;;;5030369;28;20081;-88
2023/06/05 12:49:56;;;;;;;3.85;2.40;;;;;;;;;;5013751;28;20136;-88
2023/06/05 12:52:25;;;;;;;3.72;2.05;;;;;;;;;;5010417;28;20061;-88
2023/06/05 12:54:51;;;;;;;4.70;1.90;;;;;;;;;;5047570;28;20054;-88
2023/06/05 12:57:20;;;;;;;5.18;1.92;;;;;;;;;;5047720;28;20126;-89
2023/06/05 12:59:47;;;;;;;3.97;2.10;;;;;;;;;;5014429;28;20495;-89
2023/06/05 13:02:13;;;;;;;5.38;1.95;;;;;;;;;;5014639;28;20052;-88
2023/06/05 13:04:42;;;;;;;5.68;2.20;;;;;;;;;;5029269;28;20045;-87
2023/06/05 13:07:08;;;;;;;3.22;2.05;;;;;;;;;;5030354;28;20049;-87
2023/06/05 13:09:35;;;;;;;4.55;2.75;;;;;;;;;;5013743;28;20060;-88
2023/06/05 13:12:03;;;;;;;5.30;2.00;;;;;;;;;;5014378;28;20045;-87
2023/06/05 13:14:30;;;;;;;4.82;2.30;;;;;;;;;;5015832;28;20451;-88
2023/06/05 13:16:57;;;;;;;3.28;1.90;;;;;;;;;;5017862;28;20094;-87
2023/06/05 13:19:23;;;;;;;5.25;2.08;;;;;;;;;;5017071;28;20045;-88
2023/06/05 13:21:49;;;;;;;4.22;1.88;;;;;;;;;;5024080;28;20055;-87
2023/06/05 13:24:15;;;;;;;7.07;2.45;;;;;;;;;;5047308;28;20051;-87
2023/06/05 13:26:42;;;;;;;6.20;2.13;;;;;;;;;;5034219;28;20103;-87
2023/06/05 13:29:08;;;;;;;2.05;1.52;;;;;;;;;;5044029;28;20060;-88
2023/06/05 13:31:35;;;;;;;2.20;1.60;;;;;;;;;;5050086;28;20053;-87
2023/06/05 13:34:01;;;;;;;4.93;2.35;;;;;;;;;;5030683;28;20049;-82
2023/06/05 13:36:28;;;;;;;4.20;2.10;;;;;;;;;;5048091;28;20111;-83
2023/06/05 13:38:55;;;;;;;5.20;2.25;;;;;;;;;;5030452;28;20169;-83
2023/06/05 13:41:21;;;;;;;5.18;2.05;;;;;;;;;;5030988;28;20129;-84
2023/06/05 13:43:47;;;;;;;4.28;2.30;;;;;;;;;;5017362;28;20051;-83
2023/06/05 13:46:13;;;;;;;4.45;1.92;;;;;;;;;;5034754;28;20128;-83
2023/06/05 13:48:39;;;;;;;5.60;1.83;;;;;;;;;;5032133;28;20049;-83
2023/06/05 13:51:06;;;;;;;7.85;2.20;;;;;;;;;;5048303;28;20061;-83
2023/06/05 13:53:34;;;;;;;4.72;2.10;;;;;;;;;;5018143;28;20495;-83
2023/06/05 13:56:06;;;;;;;5.38;2.00;;;;;;;;;;4999793;28;20498;-84
2023/06/05 13:58:32;;;;;;;3.97;2.10;;;;;;;;;;5040978;28;20060;-91
2023/06/05 14:00:59;;;;;;;4.03;1.88;;;;;;;;;;5037650;28;20052;-92
2023/06/05 14:03:25;;;;;;;5.72;2.15;;;;;;;;;;5051236;28;20047;-91
2023/06/05 14:05:51;;;;;;;5.72;2.20;;;;;;;;;;5040402;28;20053;-92
2023/06/05 14:08:20;;;;;;;3.75;2.10;;;;;;;;;;5009491;28;20057;-92
2023/06/05 14:10:46;;;;;;;4.88;2.30;;;;;;;;;;5079446;28;20067;-92
2023/06/05 14:13:13;;;;;;;3.75;2.10;;;;;;;;;;5024256;28;20045;-92
2023/06/05 14:15:39;;;;;;;5.75;2.63;;;;;;;;;;5024468;28;20049;-92
2023/06/05 14:18:06;;;;;;;4.38;2.28;;;;;;;;;;5050664;28;20071;-91
2023/06/05 14:20:32;;;;;;;4.80;2.10;;;;;;;;;;5024689;28;20052;-92
2023/06/05 14:22:59;;;;;;;3.28;2.05;;;;;;;;;;5020613;28;20092;-92
2023/06/05 14:25:28;;;;;;;5.30;2.63;;;;;;;;;;5017013;28;20075;-91
2023/06/05 14:27:55;;;;;;;4.50;2.10;;;;;;;;;;5030843;28;20057;-91
2023/06/05 14:30:21;;;;;;;4.13;2.30;;;;;;;;;;5001756;28;20053;-92
2023/06/05 14:32:48;;;;;;;5.40;2.50;;;;;;;;;;5050515;28;20041;-90
2023/06/05 14:35:16;;;;;;;6.63;2.38;;;;;;;;;;5017646;28;20069;-92
2023/06/05 14:37:42;;;;;;;5.25;2.10;;;;;;;;;;5036754;28;20509;-92
2023/06/05 14:40:09;;;;;;;4.28;2.50;;;;;;;;;;5039878;28;20056;-93
2023/06/05 14:42:35;;;;;;;6.80;2.30;;;;;;;;;;5044209;28;20045;-90
2023/06/05 14:45:02;;;;;;;4.95;2.85;;;;;;;;;;5041798;28;20055;-91
2023/06/05 14:47:28;;;;;;;4.50;2.30;;;;;;;;;;5038181;28;20044;-91
2023/06/05 14:49:54;;;;;;;4.75;2.95;;;;;;;;;;5037013;28;20088;-93
2023/06/05 14:52:21;;;;;;;7.93;3.05;;;;;;;;;;5048703;28;20076;-92